createdAt,value
2018-09-14T00:02:23.515Z,21.00
2018-09-14T00:04:52.121Z,20.30
2018-09-14T00:07:20.734Z,19.40
2018-09-14T00:09:49.331Z,19.27
2018-09-14T00:12:17.951Z,18.93
2018-09-14T00:14:46.543Z,18.87
2018-09-14T00:17:15.163Z,20.13
2018-09-14T00:19:43.775Z,18.53
2018-09-14T00:22:12.389Z,16.70
2018-09-14T00:24:40.991Z,19.93
2018-09-14T00:27:09.599Z,21.20
2018-09-14T00:29:38.205Z,18.90
2018-09-14T00:32:07.071Z,19.83
2018-09-14T00:34:35.666Z,20.70
2018-09-14T00:37:04.768Z,20.20
2018-09-14T00:39:33.384Z,20.43
2018-09-14T00:42:02.116Z,19.27
2018-09-14T00:44:30.731Z,19.50
2018-09-14T00:46:59.339Z,18.40
2018-09-14T00:49:27.947Z,18.30
2018-09-14T00:51:56.576Z,17.57
2018-09-14T00:54:25.190Z,20.20
2018-09-14T00:56:53.803Z,19.20
2018-09-14T00:59:22.526Z,17.90
2018-09-14T01:01:51.118Z,18.00
2018-09-14T01:04:19.720Z,18.23
2018-09-14T01:06:48.323Z,17.50
2018-09-14T01:09:22.275Z,17.57
2018-09-14T01:11:50.884Z,17.47
2018-09-14T01:14:19.482Z,17.73
2018-09-14T01:16:48.088Z,17.60
2018-09-14T01:19:16.693Z,18.33
2018-09-14T01:21:45.293Z,17.10
2018-09-14T01:24:13.904Z,16.40
2018-09-14T01:26:42.504Z,17.80
2018-09-14T01:29:11.124Z,16.97
2018-09-14T01:31:39.740Z,16.03
2018-09-14T01:34:08.348Z,17.03
2018-09-14T01:36:36.968Z,18.00
2018-09-14T01:39:08.431Z,17.47
2018-09-14T01:41:37.090Z,18.23
2018-09-14T01:44:05.988Z,19.10
2018-09-14T01:46:34.583Z,18.00
2018-09-14T01:49:03.188Z,18.23
2018-09-14T01:51:31.787Z,16.80
2018-09-14T01:54:00.430Z,17.10
2018-09-14T01:56:29.023Z,17.30
2018-09-14T01:58:57.649Z,18.10
2018-09-14T02:01:26.271Z,16.80
2018-09-14T02:03:54.888Z,17.20
2018-09-14T02:06:24.167Z,18.20
2018-09-14T02:08:52.775Z,16.80
2018-09-14T02:11:21.371Z,17.43
2018-09-14T02:13:50.040Z,17.13
2018-09-14T02:16:18.649Z,17.57
2018-09-14T02:18:47.259Z,16.07
2018-09-14T02:21:15.955Z,15.70
2018-09-14T02:23:44.563Z,15.17
2018-09-14T02:26:13.171Z,14.90
2018-09-14T02:28:41.784Z,16.17
2018-09-14T02:31:10.387Z,15.40
2018-09-14T02:33:38.984Z,16.63
2018-09-14T02:36:07.602Z,14.83
2018-09-14T02:38:36.232Z,16.97
2018-09-14T02:41:04.955Z,15.60
2018-09-14T02:43:33.623Z,14.90
2018-09-14T02:46:02.234Z,16.97
2018-09-14T02:48:30.818Z,15.17
2018-09-14T02:50:59.426Z,14.97
2018-09-14T02:53:28.035Z,16.50
2018-09-14T02:55:56.643Z,15.27
2018-09-14T02:58:25.243Z,15.43
2018-09-14T03:00:53.848Z,15.70
2018-09-14T03:03:22.429Z,14.70
2018-09-14T03:05:51.023Z,14.73
2018-09-14T03:08:19.627Z,15.67
2018-09-14T03:10:48.231Z,14.77
2018-09-14T03:13:16.832Z,15.40
2018-09-14T03:15:45.427Z,14.80
2018-09-14T03:18:14.021Z,13.40
2018-09-14T03:20:42.616Z,14.97
2018-09-14T03:23:11.224Z,14.70
2018-09-14T03:25:39.819Z,16.00
2018-09-14T03:28:08.420Z,15.27
2018-09-14T03:30:37.030Z,14.43
2018-09-14T03:33:05.768Z,14.50
2018-09-14T03:35:34.363Z,15.57
2018-09-14T03:38:02.963Z,14.40
2018-09-14T03:40:31.556Z,14.60
2018-09-14T03:43:00.151Z,15.00
2018-09-14T03:45:28.747Z,15.37
2018-09-14T03:47:57.332Z,15.70
2018-09-14T03:50:25.939Z,14.80
2018-09-14T03:52:54.639Z,16.63
2018-09-14T03:55:23.328Z,14.33
2018-09-14T03:57:51.911Z,14.50
2018-09-14T04:00:20.507Z,15.20
2018-09-14T04:02:49.111Z,16.17
2018-09-14T04:05:17.719Z,15.80
2018-09-14T04:07:46.348Z,15.00
2018-09-14T04:10:14.903Z,15.63
2018-09-14T04:12:43.500Z,17.57
2018-09-14T04:15:12.107Z,16.70
2018-09-14T04:17:40.725Z,17.03
2018-09-14T04:20:09.319Z,15.27
2018-09-14T04:22:37.925Z,15.57
2018-09-14T04:25:06.524Z,17.03
2018-09-14T04:27:35.156Z,17.30
2018-09-14T04:30:03.769Z,15.23
2018-09-14T04:32:32.367Z,16.80
2018-09-14T04:35:00.968Z,16.73
2018-09-14T04:37:29.570Z,15.00
2018-09-14T04:39:58.171Z,16.03
2018-09-14T04:42:26.789Z,16.47
2018-09-14T04:44:55.407Z,17.20
2018-09-14T04:47:24.015Z,15.63
2018-09-14T04:49:52.615Z,15.50
2018-09-14T04:52:21.221Z,16.70
2018-09-14T04:54:49.965Z,15.00
2018-09-14T04:57:18.587Z,14.60
2018-09-14T04:59:47.160Z,15.60
2018-09-14T05:02:15.804Z,16.73
2018-09-14T05:04:44.484Z,15.67
2018-09-14T05:07:13.721Z,15.47
2018-09-14T05:09:44.766Z,16.80
2018-09-14T05:12:13.500Z,15.50
2018-09-14T05:14:42.548Z,16.10
2018-09-14T05:17:11.135Z,15.77
2018-09-14T05:19:39.760Z,14.73
2018-09-14T05:22:08.391Z,15.00
2018-09-14T05:24:37.151Z,14.70
2018-09-14T05:27:05.673Z,13.17
2018-09-14T05:29:34.281Z,13.10
2018-09-14T05:32:02.879Z,14.67
2018-09-14T05:34:31.480Z,14.70
2018-09-14T05:37:00.087Z,13.20
2018-09-14T05:39:28.682Z,14.20
2018-09-14T05:41:57.287Z,15.50
2018-09-14T05:44:25.891Z,16.23
2018-09-14T05:46:54.492Z,16.63
2018-09-14T05:49:23.104Z,16.53
2018-09-14T05:51:51.911Z,16.67
2018-09-14T05:54:20.565Z,16.87
2018-09-14T05:56:49.116Z,16.10
2018-09-14T05:59:17.723Z,15.60
2018-09-14T06:01:46.388Z,15.70
2018-09-14T06:04:14.999Z,15.40
2018-09-14T06:06:43.702Z,15.33
2018-09-14T06:09:13.143Z,15.50
2018-09-14T06:11:42.360Z,14.77
2018-09-14T06:14:10.973Z,16.33
2018-09-14T06:16:40.071Z,14.97
2018-09-14T06:19:08.708Z,14.53
2018-09-14T06:21:37.312Z,14.97
2018-09-14T06:24:05.956Z,14.33
2018-09-14T06:26:34.569Z,15.07
2018-09-14T06:29:03.171Z,15.17
2018-09-14T06:31:31.782Z,14.43
2018-09-14T06:34:00.388Z,14.33
2018-09-14T06:36:28.996Z,15.00
2018-09-14T06:38:57.600Z,13.87
2018-09-14T06:41:26.207Z,14.80
2018-09-14T06:43:54.802Z,14.60
2018-09-14T06:46:23.423Z,14.90
2018-09-14T06:48:52.032Z,15.73
2018-09-14T06:51:20.635Z,15.87
2018-09-14T06:53:49.224Z,15.90
2018-09-14T06:56:17.842Z,15.50
2018-09-14T06:58:46.436Z,15.73
2018-09-14T07:01:15.048Z,15.83
2018-09-14T07:03:43.680Z,16.47
2018-09-14T07:06:12.292Z,16.93
2018-09-14T07:08:40.926Z,16.70
2018-09-14T07:11:09.531Z,17.40
2018-09-14T07:13:38.131Z,18.63
2018-09-14T07:16:06.743Z,17.10
2018-09-14T07:18:35.360Z,17.30
2018-09-14T07:21:03.959Z,17.50
2018-09-14T07:23:32.575Z,16.80
2018-09-14T07:26:01.196Z,18.43
2018-09-14T07:28:29.772Z,18.93
2018-09-14T07:30:58.392Z,19.07
2018-09-14T07:33:26.995Z,19.63
2018-09-14T07:35:55.595Z,18.63
2018-09-14T07:38:24.220Z,18.30
2018-09-14T07:40:52.832Z,19.30
2018-09-14T07:43:21.456Z,24.63
2018-09-14T07:45:50.167Z,23.97
2018-09-14T07:48:18.796Z,24.40
2018-09-14T07:50:47.388Z,24.77
2018-09-14T07:53:16.004Z,25.37
2018-09-14T07:55:44.619Z,26.50
2018-09-14T07:58:13.250Z,25.43
2018-09-14T08:00:41.888Z,24.20
2018-09-14T08:03:10.504Z,22.70
2018-09-14T08:05:39.120Z,25.20
2018-09-14T08:08:07.748Z,24.03
2018-09-14T08:10:36.400Z,24.77
2018-09-14T08:13:05.107Z,24.10
2018-09-14T08:15:33.727Z,24.77
2018-09-14T08:18:02.367Z,26.50
2018-09-14T08:20:31.477Z,28.03
2018-09-14T08:23:00.134Z,31.13
2018-09-14T08:25:28.757Z,26.97
2018-09-14T08:27:57.371Z,25.80
2018-09-14T08:30:26.032Z,26.50
2018-09-14T08:32:54.947Z,25.93
2018-09-14T08:35:23.579Z,26.27
2018-09-14T08:37:52.200Z,25.00
2018-09-14T08:40:20.825Z,26.57
2018-09-14T08:42:49.434Z,26.63
2018-09-14T08:45:18.051Z,26.00
2018-09-14T08:47:46.686Z,23.43
2018-09-14T08:50:15.283Z,23.20
2018-09-14T08:52:43.899Z,24.00
2018-09-14T08:55:12.531Z,22.57
2018-09-14T08:57:41.135Z,22.67
2018-09-14T09:00:09.762Z,22.57
2018-09-14T09:02:38.360Z,22.23
2018-09-14T09:05:07.037Z,21.80
2018-09-14T09:07:35.643Z,23.13
2018-09-14T09:10:04.312Z,23.03
2018-09-14T09:12:32.939Z,20.77
2018-09-14T09:15:01.556Z,21.93
2018-09-14T09:17:30.185Z,22.20
2018-09-14T09:19:58.882Z,23.40
2018-09-14T09:22:27.549Z,23.37
2018-09-14T09:24:56.191Z,24.40
2018-09-14T09:27:24.807Z,24.47
2018-09-14T09:29:53.431Z,22.27
2018-09-14T09:32:22.059Z,23.90
2018-09-14T09:34:50.683Z,23.20
2018-09-14T09:37:19.399Z,20.83
2018-09-14T09:39:48.037Z,23.17
2018-09-14T09:42:16.649Z,22.40
2018-09-14T09:44:45.274Z,20.23
2018-09-14T09:47:13.902Z,19.40
2018-09-14T09:49:42.534Z,22.73
2018-09-14T09:52:11.172Z,28.93
2018-09-14T09:54:39.793Z,19.33
2018-09-14T09:57:08.419Z,16.57
2018-09-14T09:59:41.644Z,19.50
2018-09-14T10:03:14.290Z,18.87
2018-09-14T10:05:48.284Z,21.27
2018-09-14T10:08:17.258Z,21.70
2018-09-14T10:10:48.672Z,19.70
2018-09-14T10:13:17.619Z,18.53
2018-09-14T10:15:46.264Z,17.90
2018-09-14T10:18:14.898Z,18.20
2018-09-14T10:20:43.591Z,16.73
2018-09-14T10:23:12.182Z,16.20
2018-09-14T10:25:40.803Z,19.77
2018-09-14T10:28:09.428Z,12.60
2018-09-14T10:30:38.039Z,13.47
2018-09-14T10:33:06.663Z,13.70
2018-09-14T10:35:35.282Z,14.63
2018-09-14T10:38:04.024Z,12.90
2018-09-14T10:40:32.730Z,13.87
2018-09-14T10:43:01.300Z,15.27
2018-09-14T10:45:29.907Z,13.70
2018-09-14T10:47:58.910Z,14.47
2018-09-14T10:50:34.566Z,12.50
2018-09-14T10:53:03.479Z,13.10
2018-09-14T10:55:32.299Z,12.40
2018-09-14T10:58:00.904Z,12.97
2018-09-14T11:00:29.537Z,13.70
2018-09-14T11:02:58.164Z,13.47
2018-09-14T11:05:28.353Z,13.23
2018-09-14T11:07:57.895Z,11.77
2018-09-14T11:10:33.876Z,11.50
2018-09-14T11:13:07.332Z,11.10
2018-09-14T11:15:36.133Z,11.87
2018-09-14T11:18:04.886Z,11.57
2018-09-14T11:20:33.649Z,10.87
2018-09-14T11:23:02.255Z,12.90
2018-09-14T11:25:30.913Z,12.57
2018-09-14T11:27:59.607Z,12.37
2018-09-14T11:30:28.307Z,12.43
2018-09-14T11:32:57.115Z,14.73
2018-09-14T11:35:25.748Z,14.03
2018-09-14T11:37:54.879Z,15.00
2018-09-14T11:40:23.488Z,18.53
2018-09-14T11:42:52.685Z,19.37
2018-09-14T11:45:21.384Z,18.50
2018-09-14T11:47:49.959Z,17.60
2018-09-14T11:50:18.591Z,17.30
2018-09-14T11:52:47.221Z,18.33
2018-09-14T11:55:15.860Z,15.50
2018-09-14T11:57:44.482Z,16.07
2018-09-14T12:00:13.179Z,15.10
2018-09-14T12:02:41.892Z,14.50
2018-09-14T12:05:10.532Z,13.17
2018-09-14T12:07:39.616Z,16.05
2018-09-14T12:10:09.100Z,14.95
2018-09-14T12:12:37.748Z,13.48
2018-09-14T12:15:06.398Z,14.63
2018-09-14T12:17:35.029Z,14.95
2018-09-14T12:20:03.633Z,13.53
2018-09-14T12:22:35.028Z,13.30
2018-09-14T12:25:11.377Z,13.18
2018-09-14T12:27:43.149Z,12.35
2018-09-14T12:30:11.784Z,9.48
2018-09-14T12:32:40.386Z,8.53
2018-09-14T12:35:09.000Z,8.40
2018-09-14T12:37:37.617Z,9.88
2018-09-14T12:40:07.407Z,11.30
2018-09-14T12:42:36.023Z,9.13
2018-09-14T12:45:04.700Z,9.83
2018-09-14T12:47:33.309Z,9.73
2018-09-14T12:50:01.987Z,10.68
2018-09-14T12:52:30.739Z,9.25
2018-09-14T12:54:59.343Z,8.70
2018-09-14T12:57:27.989Z,9.30
2018-09-14T12:59:56.599Z,8.48
2018-09-14T13:02:25.243Z,9.75
2018-09-14T13:04:53.852Z,9.45
2018-09-14T13:07:22.744Z,9.18
2018-09-14T13:09:51.356Z,9.53
2018-09-14T13:12:19.983Z,9.50
2018-09-14T13:14:48.583Z,9.70
2018-09-14T13:17:17.216Z,9.23
2018-09-14T13:19:45.848Z,9.38
2018-09-14T13:22:14.488Z,9.68
2018-09-14T13:24:43.547Z,9.15
2018-09-14T13:27:12.212Z,9.80
2018-09-14T13:29:40.835Z,9.43
2018-09-14T13:32:09.439Z,9.10
2018-09-14T13:34:38.071Z,8.90
2018-09-14T13:37:06.391Z,12.77
2018-09-14T13:39:35.012Z,7.27
2018-09-14T13:42:03.628Z,9.00
2018-09-14T13:44:32.257Z,7.43
2018-09-14T13:47:00.893Z,8.03
2018-09-14T13:49:29.512Z,8.58
2018-09-14T13:51:58.116Z,7.92
2018-09-14T13:54:26.736Z,8.43
2018-09-14T13:56:55.367Z,7.43
2018-09-14T13:59:23.988Z,9.57
2018-09-14T14:01:52.612Z,9.50
2018-09-14T14:04:21.658Z,9.30
2018-09-14T14:06:50.264Z,9.20
2018-09-14T14:09:18.883Z,9.53
2018-09-14T14:11:47.507Z,9.93
2018-09-14T14:14:16.128Z,10.50
2018-09-14T14:16:44.800Z,10.00
2018-09-14T14:19:13.395Z,11.40
2018-09-14T14:21:42.020Z,10.50
2018-09-14T14:24:10.660Z,7.83
2018-09-14T14:26:40.205Z,7.53
2018-09-14T14:29:08.827Z,7.07
2018-09-14T14:31:37.443Z,7.70
2018-09-14T14:34:06.550Z,6.57
2018-09-14T14:36:35.161Z,7.80
2018-09-14T14:39:04.738Z,8.00
2018-09-14T14:44:08.736Z,8.10
2018-09-14T14:46:37.295Z,7.20
2018-09-14T14:49:05.915Z,7.20
2018-09-14T14:51:34.553Z,7.47
2018-09-14T14:54:03.154Z,7.53
2018-09-14T14:56:31.787Z,8.90
2018-09-14T14:59:00.429Z,8.50
2018-09-14T15:01:29.051Z,7.20
2018-09-14T15:03:57.655Z,7.60
2018-09-14T15:06:26.296Z,9.20
2018-09-14T15:08:54.895Z,7.47
2018-09-14T15:11:23.528Z,8.07
2018-09-14T15:13:52.138Z,8.73
2018-09-14T15:16:20.746Z,8.40
2018-09-14T15:18:49.353Z,8.50
2018-09-14T15:21:18.104Z,8.47
2018-09-14T15:23:46.675Z,8.97
2018-09-14T15:26:15.294Z,8.37
2018-09-14T15:28:43.923Z,7.77
2018-09-14T15:31:12.561Z,6.80
2018-09-14T15:33:41.164Z,6.63
2018-09-14T15:36:09.768Z,7.80
2018-09-14T15:38:38.400Z,7.30
2018-09-14T15:41:07.029Z,7.70
2018-09-14T15:43:35.673Z,6.63
2018-09-14T15:46:04.243Z,7.00
2018-09-14T15:48:33.839Z,7.20
2018-09-14T15:51:02.441Z,6.80
2018-09-14T15:53:31.108Z,8.20
2018-09-14T15:55:59.712Z,7.77
2018-09-14T15:58:28.332Z,7.03
2018-09-14T16:00:56.956Z,6.43
2018-09-14T16:03:25.610Z,7.17
2018-09-14T16:05:54.211Z,5.73
2018-09-14T16:08:22.837Z,6.53
2018-09-14T16:10:51.476Z,6.67
2018-09-14T16:13:20.133Z,6.83
2018-09-14T16:15:48.707Z,6.60
2018-09-14T16:18:17.332Z,6.60
2018-09-14T16:20:46.010Z,6.07
2018-09-14T16:23:14.731Z,6.00
2018-09-14T16:25:43.322Z,6.37
2018-09-14T16:28:11.986Z,5.20
2018-09-14T16:30:40.587Z,5.67
2018-09-14T16:33:09.305Z,5.87
2018-09-14T16:35:37.907Z,5.57
2018-09-14T16:38:06.540Z,6.13
2018-09-14T16:40:35.133Z,5.77
2018-09-14T16:43:03.732Z,5.67
2018-09-14T16:45:32.387Z,5.60
2018-09-14T16:48:01.004Z,5.70
2018-09-14T16:50:29.652Z,5.97
2018-09-14T16:52:58.223Z,8.20
2018-09-14T16:55:26.907Z,7.80
2018-09-14T16:57:55.513Z,8.13
2018-09-14T17:00:24.143Z,8.37
2018-09-14T17:02:52.760Z,7.90
2018-09-14T17:05:21.376Z,7.90
2018-09-14T17:07:50.006Z,8.07
2018-09-14T17:10:18.610Z,7.67
2018-09-14T17:12:47.228Z,8.17
2018-09-14T17:15:15.854Z,8.40
2018-09-14T17:17:44.459Z,7.47
2018-09-14T17:20:13.087Z,7.97
2018-09-14T17:22:41.705Z,7.90
2018-09-14T17:25:10.330Z,6.90
2018-09-14T17:27:38.968Z,7.00
2018-09-14T17:30:07.591Z,7.60
2018-09-14T17:32:36.205Z,9.33
2018-09-14T17:35:04.823Z,7.73
2018-09-14T17:37:33.444Z,7.93
2018-09-14T17:40:02.061Z,8.40
2018-09-14T17:42:30.675Z,8.67
2018-09-14T17:44:59.291Z,7.83
2018-09-14T17:47:27.904Z,7.20
2018-09-14T17:49:56.543Z,7.60
2018-09-14T17:52:25.170Z,7.33
2018-09-14T17:54:53.779Z,7.73
2018-09-14T17:57:22.400Z,7.97
2018-09-14T17:59:51.023Z,7.67
2018-09-14T18:02:19.656Z,8.03
2018-09-14T18:04:48.286Z,8.60
2018-09-14T18:07:16.927Z,9.23
2018-09-14T18:09:45.549Z,9.80
2018-09-14T18:12:14.174Z,8.70
2018-09-14T18:14:42.799Z,7.70
2018-09-14T18:17:11.427Z,7.37
2018-09-14T18:19:40.208Z,8.70
2018-09-14T18:22:08.891Z,8.13
2018-09-14T18:24:37.483Z,7.53
2018-09-14T18:27:06.124Z,7.20
2018-09-14T18:29:34.735Z,8.30
2018-09-14T18:32:03.360Z,7.20
2018-09-14T18:34:33.019Z,8.67
2018-09-14T18:37:01.777Z,8.20
2018-09-14T18:39:30.392Z,8.13
2018-09-14T18:41:59.006Z,7.20
2018-09-14T18:44:27.635Z,7.23
2018-09-14T18:46:56.337Z,8.70
2018-09-14T18:49:24.894Z,7.67
2018-09-14T18:51:53.848Z,8.23
2018-09-14T18:54:22.516Z,9.03
2018-09-14T18:56:51.147Z,9.60
2018-09-14T18:59:19.795Z,9.73
2018-09-14T19:01:48.485Z,9.30
2018-09-14T19:04:17.099Z,10.00
2018-09-14T19:06:45.704Z,8.53
2018-09-14T19:09:14.320Z,8.83
2018-09-14T19:11:42.964Z,8.80
2018-09-14T19:14:11.637Z,8.90
2018-09-14T19:16:40.289Z,10.07
2018-09-14T19:19:08.941Z,9.53
2018-09-14T19:21:37.516Z,9.37
2018-09-14T19:24:06.167Z,9.27
2018-09-14T19:26:34.772Z,9.43
2018-09-14T19:29:03.439Z,10.30
2018-09-14T19:31:32.099Z,11.30
2018-09-14T19:34:00.773Z,11.27
2018-09-14T19:36:29.407Z,11.70
2018-09-14T19:38:58.019Z,13.20
2018-09-14T19:41:26.649Z,12.77
2018-09-14T19:43:55.295Z,13.60
2018-09-14T19:46:23.951Z,14.13
2018-09-14T19:48:52.647Z,13.30
2018-09-14T19:51:21.290Z,13.20
2018-09-14T19:53:49.980Z,13.60
2018-09-14T19:56:18.595Z,12.70
2018-09-14T19:58:47.387Z,12.33
2018-09-14T20:01:16.027Z,13.00
2018-09-14T20:03:44.947Z,14.23
2018-09-14T20:06:13.604Z,14.20
2018-09-14T20:08:42.191Z,12.90
2018-09-14T20:11:10.804Z,12.00
2018-09-14T20:13:39.480Z,11.90
2018-09-14T20:16:08.169Z,12.33
2018-09-14T20:18:38.581Z,10.90
2018-09-14T20:21:07.148Z,12.00
2018-09-14T20:23:35.824Z,10.30
2018-09-14T20:26:04.459Z,11.60
2018-09-14T20:28:33.059Z,10.93
2018-09-14T20:31:01.680Z,10.60
2018-09-14T20:33:30.307Z,10.43
2018-09-14T20:35:58.949Z,9.63
2018-09-14T20:38:27.551Z,10.20
2018-09-14T20:40:56.184Z,10.67
2018-09-14T20:43:24.815Z,11.67
2018-09-14T20:45:53.446Z,10.30
2018-09-14T20:48:22.088Z,10.70
2018-09-14T20:50:50.712Z,10.33
2018-09-14T20:53:19.331Z,10.50
2018-09-14T20:55:47.956Z,9.83
2018-09-14T20:58:16.670Z,10.20
2018-09-14T21:00:45.251Z,9.60
2018-09-14T21:03:13.877Z,9.43
2018-09-14T21:05:42.491Z,9.50
2018-09-14T21:08:11.144Z,10.27
2018-09-14T21:10:39.776Z,10.70
2018-09-14T21:13:08.414Z,9.97
2018-09-14T21:15:37.028Z,10.70
2018-09-14T21:18:06.469Z,10.37
2018-09-14T21:20:35.092Z,11.13
2018-09-14T21:23:03.719Z,11.23
2018-09-14T21:25:32.347Z,11.60
2018-09-14T21:28:00.971Z,11.17
2018-09-14T21:30:29.605Z,11.17
2018-09-14T21:32:58.240Z,11.77
2018-09-14T21:35:26.859Z,11.40
2018-09-14T21:37:55.484Z,10.90
2018-09-14T21:40:24.139Z,10.33
2018-09-14T21:42:52.753Z,10.00
2018-09-14T21:45:21.401Z,11.20
2018-09-14T21:47:50.028Z,11.00
2018-09-14T21:50:18.663Z,11.70
2018-09-14T21:52:47.299Z,11.80
2018-09-14T21:55:15.930Z,11.73
2018-09-14T21:57:44.582Z,10.30
2018-09-14T22:00:18.604Z,11.20
2018-09-14T22:02:47.239Z,11.03
2018-09-14T22:05:15.859Z,12.00
2018-09-14T22:07:44.508Z,11.40
2018-09-14T22:10:13.136Z,11.10
2018-09-14T22:12:41.779Z,12.00
2018-09-14T22:15:10.397Z,11.33
2018-09-14T22:17:39.031Z,11.20
2018-09-14T22:20:07.880Z,11.83
2018-09-14T22:22:36.504Z,12.67
2018-09-14T22:25:05.140Z,11.13
2018-09-14T22:27:33.767Z,10.97
2018-09-14T22:30:02.406Z,11.23
2018-09-14T22:32:31.014Z,11.27
2018-09-14T22:34:59.639Z,12.00
2018-09-14T22:37:28.261Z,12.00
2018-09-14T22:39:56.884Z,11.50
2018-09-14T22:42:25.526Z,11.17
2018-09-14T22:44:54.184Z,11.83
2018-09-14T22:47:22.795Z,11.03
2018-09-14T22:49:51.407Z,12.07
2018-09-14T22:52:20.031Z,11.67
2018-09-14T22:54:48.657Z,13.00
2018-09-14T22:57:17.353Z,12.60
2018-09-14T22:59:45.972Z,12.23
2018-09-14T23:02:14.579Z,11.93
2018-09-14T23:04:43.244Z,13.00
2018-09-14T23:07:11.868Z,12.17
2018-09-14T23:09:40.484Z,11.83
2018-09-14T23:12:09.100Z,11.60
2018-09-14T23:14:37.728Z,11.37
2018-09-14T23:17:06.568Z,10.10
2018-09-14T23:19:35.203Z,11.00
2018-09-14T23:22:03.815Z,11.60
2018-09-14T23:24:32.435Z,12.40
2018-09-14T23:27:01.047Z,11.23
2018-09-14T23:29:29.667Z,11.80
2018-09-14T23:31:58.320Z,12.00
2018-09-14T23:34:26.960Z,11.50
2018-09-14T23:36:55.572Z,13.00
2018-09-14T23:39:24.195Z,13.53
2018-09-14T23:41:52.822Z,11.90
2018-09-14T23:44:21.434Z,12.07
2018-09-14T23:46:50.053Z,12.20
2018-09-14T23:49:18.663Z,12.60
2018-09-14T23:51:47.349Z,12.90
2018-09-14T23:54:15.968Z,11.97
2018-09-14T23:56:44.587Z,12.87
2018-09-14T23:59:13.265Z,12.70
